Valle Toledo, Valles Caldera, New Mexico Weather observations

Data are for 10 minute period ending at time listed.
 Day   Time   Solar   Ave.   Ave.  Ave.  Vector  Max.   Baro.   Total    
  of    of     Rad.   Air    Rel.  Wind   Wind   Wind  Press.  Precip.   
Year   Day            Temp.  Hum.  Speed  Dir.   Gust                    
2017   (MST)  Kw/m2    F      %     mph   deg.    mph    mb.     in.     
-------------------------------------------------------------------------
  51   22:30   0.00   27.8    67    2.9    26     4.2   735.0    0.00 
  51   22:40   0.00   27.8    66    3.2    35     4.8   735.0    0.00 
  51   22:50   0.00   27.8    64    2.6    38     4.2   735.1    0.00 
  51   23:00   0.00   27.2    64    3.0    34     4.2   735.2    0.00 
  51   23:10   0.00   26.7    65    2.7    39     4.2   735.2    0.00 
  51   23:20   0.00   26.8    64    2.9    39     4.2   735.3    0.00 
  51   23:30   0.00   26.7    62    3.7    41     4.2   735.4    0.00 
  51   23:40   0.00   26.7    64    3.0    24     4.2   735.5    0.00 
  51   23:50   0.00   26.6    64    3.5    42     4.8   735.5    0.00 
  52    0:00   0.00   26.3    66    3.3    39     4.8   735.4    0.00 
  52    0:10   0.00   26.2    70    2.2    24     3.6   735.4    0.00 
  52    0:20   0.00   26.1    67    2.4    36     3.6   735.4    0.00 
  52    0:30   0.00   26.1    66    3.1    36     4.8   735.4    0.00 
  52    0:40   0.00   26.2    66    3.7    30     4.8   735.6    0.00 
  52    0:50   0.00   26.7    64    3.7    35     4.8   735.6    0.00 
  52    1:00   0.00   27.0    66    3.0    14     4.8   735.8    0.00 
  52    1:10   0.00   27.0    64    3.3    41     4.2   735.8    0.00 
  52    1:20   0.00   26.9    66    3.4    37     4.2   735.7    0.00 
  52    1:30   0.00   26.7    67    2.6    27     4.2   735.8    0.00 
  52    1:40   0.00   26.7    67    3.6    36     4.8   735.8    0.00 
  52    1:50   0.00   26.9    66    2.9    23     4.2   735.9    0.00 
  52    2:00   0.00   26.7    66    2.6    18     3.6   735.9    0.00 
  52    2:10   0.00   26.6    64    2.4    34     4.2   736.0    0.00 
  52    2:20   0.00   26.5    64    2.8    54     4.2   736.0    0.00 
  52    2:30   0.00   26.7    64    2.8    38     4.8   735.9    0.00 
  52    2:40   0.00   26.7    65    2.9    23     4.8   735.9    0.00 
  52    2:50   0.00   27.0    66    2.1     6     4.2   735.9    0.00 
  52    3:00   0.00   27.8    70    2.0   226     4.2   735.8    0.00 
  52    3:10   0.00   28.1    73    2.1   129     4.2   735.8    0.00 
  52    3:20   0.00   28.7    73    2.8   107     4.8   735.7    0.00 
  52    3:30   0.00   29.1    73    3.2    58     4.8   735.7    0.00 
  52    3:40   0.00   29.4    74    2.3   100     6.0   735.7    0.00 
  52    3:50   0.00   29.6    74    2.8    73     4.8   735.7    0.00 
  52    4:00   0.00   29.4    74    2.8   107     4.8   735.7    0.00 
  52    4:10   0.00   30.5    74    4.2   204     8.4   735.7    0.00 
  52    4:20   0.00   31.5    71    3.4   197     7.8   735.7    0.00 
  52    4:30   0.00   32.1    71    5.7   223    11.3   735.7    0.00 
  52    4:40   0.00   33.1    68    4.4   234     7.2   735.7    0.00 
  52    4:50   0.00   31.9    71    3.3   233     7.8   735.7    0.00 
  52    5:00   0.00   32.1    72    4.3   268     8.4   735.8    0.00 
  52    5:10   0.00   31.9    72    3.7   266     9.6   735.8    0.00 
  52    5:20   0.00   32.3    71    3.4   247     6.6   735.9    0.00 
  52    5:30   0.00   32.5    72    6.1   268    17.3   735.8    0.00 
  52    5:40   0.00   33.5    70    7.7   253    14.9   735.9    0.00 
  52    5:50   0.00   33.2    71    6.0   257    12.5   736.0    0.00 
  52    6:00   0.00   32.6    73    5.3   257    10.8   736.0    0.00 
  52    6:10   0.00   32.6    73    6.1   252    13.1   736.0    0.00 
  52    6:20   0.00   32.1    74    5.1   271    10.8   736.0    0.00 
  52    6:30   0.00   32.4    74    7.5   257    13.1   736.0    0.00 
  52    6:40   0.00   32.2    75    7.2   272    22.1   736.1    0.00 
  52    6:50   0.00   32.3    76    6.9   266    14.3   736.1    0.00 
  52    7:00   0.01   32.1    76    6.3   278    13.7   736.3    0.00 
  52    7:10   0.01   31.9    76    6.9   265    12.5   736.3    0.00 
  52    7:20   0.01   32.0    76    6.4   246    12.5   736.5    0.00 
  52    7:30   0.01   31.9    76    6.0   250    13.1   736.5    0.00 
  52    7:40   0.03   32.1    75    6.6   280    12.5   736.8    0.00 
  52    7:50   0.03   33.2    72    6.9   284    13.1   736.9    0.00 
  52    8:00   0.02   33.9    70    6.5   293    12.5   736.9    0.00 
  52    8:10   0.07   34.1    69    8.2   302    14.9   736.9    0.00 
  52    8:20   0.29   35.1    66    7.3   283    14.3   736.8    0.00 
  52    8:30   0.34   37.4    60    5.6   282    10.2   736.7    0.00 
  52    8:40   0.37   41.5    52    7.6   307    12.5   736.6    0.00 
  52    8:50   0.21   41.6    51    6.3   290    11.9   736.6    0.00 
  52    9:00   0.20   39.2    56    4.5   261     7.8   736.6    0.00 
  52    9:10   0.08   39.8    54    4.7   275     6.6   736.6    0.00 
  52    9:20   0.41   40.6    52    3.1   229     6.6   736.5    0.00 
  52    9:30   0.54   42.3    51    4.3   248     7.2   736.5    0.00 
  52    9:40   0.57   42.9    51    3.4   266     7.2   736.4    0.00 
  52    9:50   0.60   46.5    44    3.0   274     5.4   736.4    0.00 
  52   10:00   0.63   44.9    46    4.4   251     7.2   736.5    0.00 
  52   10:10   0.65   44.6    45    4.5   262     8.4   736.5    0.00 
  52   10:20   0.68   45.5    42    4.3   261     7.8   736.5    0.00 
  52   10:30   0.70   46.9    40    4.4   261     6.6   736.5    0.00 
  52   10:40   0.72   46.5    38    5.1   230     7.2   736.6    0.00 
  52   10:50   0.74   47.2    36    4.7   245     7.8   736.6    0.00 
  52   11:00   0.76   48.4    34    4.2   248     7.2   736.6    0.00 
  52   11:10   0.78   52.2    28    2.3   184     4.2   736.4    0.00 
  52   11:20   0.80   54.3    25    2.4   134     4.2   736.3    0.00 
  52   11:30   0.81   55.0    24    2.3    87     3.6   736.3    0.00 
  52   11:40   0.82   55.6    22    3.5   243     8.4   736.2    0.00 
  52   11:50   0.83   53.9    22    4.9   256     7.2   736.2    0.00 
  52   12:00   0.83   55.4    18    3.0   236     6.0   736.2    0.00 
  52   12:10   0.84   56.1    17    3.1   188     4.8   736.0    0.00 
  52   12:20   0.85   55.8    14    4.3   191     8.4   735.9    0.00 
  52   12:30   0.85   54.5    15    6.0   228    11.3   735.8    0.01 
  52   12:40   0.85   55.4    12    5.9   253    12.5   735.7    0.00 
  52   12:50   0.84   55.6    11    7.8   282    13.1   735.7    0.01 
  52   13:00   0.83   55.8    17    5.2   250     9.6   735.7    0.00 
  52   13:10   0.82   53.9    22    5.6   231    10.8   735.6    0.00 
  52   13:20   0.81   54.0    22    6.2   219    10.8   735.4    0.01 
  52   13:30   0.80   54.4    23    5.5   238     9.0   735.2    0.00 
  52   13:40   0.78   54.8    23    4.9   227     9.0   735.1    0.00 
  52   13:50   0.77   55.0    24    5.5   235     9.6   735.0    0.00 
  52   14:00   0.75   56.0    24    5.0   264     9.6   735.1    0.01 
  52   14:10   0.73   56.0    23    5.1   268     8.4   735.0    0.00 
  52   14:20   0.71   55.9    23    5.2   262     9.6   735.0    0.00 
  52   14:30   0.69   55.9    23    5.3   264    10.2   735.0    0.00 
  52   14:40   0.67   54.8    23    5.1   252     9.6   735.0    0.01 
  52   14:50   0.64   54.4    19    6.4   242    16.1   734.8    0.00 
  52   15:00   0.61   53.3    19    6.8   234    11.3   734.7    0.00 
  52   15:10   0.58   54.6    20    4.9   253     8.4   734.8    0.00 
  52   15:20   0.55   54.2    23    4.9   234     9.6   734.8    0.00 
  52   15:30   0.52   55.1    15    7.0   282    12.5   734.8    0.00 
  52   15:40   0.48   57.4    15    3.9   286     9.6   734.7    0.00 
  52   15:50   0.45   55.6    16    4.7   246     7.8   734.7    0.00 
  52   16:00   0.41   55.7    18    4.8   286     9.6   734.7    0.00 
  52   16:10   0.36   55.5    20    4.2   250     7.2   734.7    0.00 
  52   16:20   0.34   53.3    22    4.4   245     9.0   734.7    0.00 
  52   16:30   0.30   53.3    22    4.3   257     7.2   734.6    0.00 
  52   16:40   0.27   53.0    22    5.3   267     9.6   734.6    0.00 
  52   16:50   0.23   52.0    22    5.2   270     7.8   734.6    0.00 
  52   17:00   0.19   51.4    23    5.3   269    11.3   734.6    0.00 
  52   17:10   0.16   51.1    24    5.4   276    11.9   734.6    0.00 
  52   17:20   0.12   49.5    26    5.6   262    10.8   734.5    0.00 
  52   17:30   0.06   47.5    28    5.5   252    10.2   734.6    0.00 
  52   17:40   0.03   45.8    31    4.4   261     7.8   734.6    0.00 
  52   17:50   0.01   44.2    34    3.8   273     7.2   734.5    0.00 
  52   18:00   0.01   42.7    39    4.0   286     6.6   734.4    0.00 
  52   18:10   0.00   41.7    42    4.3   306     7.8   734.3    0.00 
  52   18:20   0.00   41.5    44    4.3   313     9.6   734.3    0.00 
  52   18:30   0.00   41.1    46    3.9   349     7.2   734.4    0.00 
  52   18:40   0.00   40.2    48    3.9     4     6.6   734.5    0.00 
  52   18:50   0.00   39.3    50    4.0    12     6.0   734.5    0.00 
  52   19:00   0.00   38.7    50    3.6    18     5.4   734.4    0.00 
  52   19:10   0.00   38.2    50    4.1    18     5.4   734.5    0.00 
  52   19:20   0.00   38.2    49    5.1     7     9.0   734.5    0.00 
  52   19:30   0.00   39.0    49    4.4     4     7.8   734.5    0.00 
  52   19:40   0.00   39.4    50    5.0     1     7.8   734.5    0.00 
  52   19:50   0.00   40.0    49    4.6   353     7.8   734.4    0.00 
  52   20:00   0.00   40.1    50    4.1     8     6.0   734.4    0.00 
  52   20:10   0.00   39.3    52    4.2     8     6.0   734.5    0.00 
  52   20:20   0.00   39.5    52    4.9   339     8.4   734.4    0.00 
  52   20:30   0.00   40.2    51    4.7   334     8.4   734.4    0.00 
  52   20:40   0.00   40.5    50    5.4   330     9.6   734.5    0.00 
  52   20:50   0.00   40.1    51    3.5   357     5.4   734.5    0.00 
  52   21:00   0.00   39.6    52    4.4   342     7.8   734.5    0.00 
  52   21:10   0.00   39.5    52    3.7   355     6.0   734.5    0.00 
  52   21:20   0.00   38.6    54    3.9   356     6.6   734.5    0.00 
  52   21:30   0.00   38.2    56    4.1     4     6.6   734.4    0.00 
  52   21:40   0.00   38.1    56    4.6   346    10.2   734.4    0.00 
  52   21:50   0.00   39.2    54    4.7   345     9.0   734.4    0.00 
  52   22:00   0.00   38.9    55    4.6   348    10.8   734.3    0.00 
  52   22:10   0.00   38.3    56    3.2   304     6.0   734.3    0.00 
  52   22:20   0.00   38.4    56    3.3    24     6.6   734.2    0.00 

Return to Valle Toledo, Valles Caldera graphs page.


Western Regional Climate Center,wrcc@dri.edu